sensor_id;sensor_type;location;lat;lon;timestamp;P1;durP1;ratioP1;P2;durP2;ratioP2
66179;SDS011;52986;44.028;20.466;2023-07-30T00:01:29;13.80;;;7.40;;
66179;SDS011;52986;44.028;20.466;2023-07-30T00:03:55;12.30;;;7.28;;
66179;SDS011;52986;44.028;20.466;2023-07-30T00:06:20;12.32;;;7.53;;
66179;SDS011;52986;44.028;20.466;2023-07-30T00:08:45;12.45;;;7.82;;
66179;SDS011;52986;44.028;20.466;2023-07-30T00:11:11;12.80;;;8.00;;
66179;SDS011;52986;44.028;20.466;2023-07-30T00:13:36;11.98;;;7.95;;
66179;SDS011;52986;44.028;20.466;2023-07-30T00:16:01;12.65;;;7.95;;
66179;SDS011;52986;44.028;20.466;2023-07-30T00:18:27;14.07;;;7.95;;
66179;SDS011;52986;44.028;20.466;2023-07-30T00:20:52;13.85;;;8.13;;
66179;SDS011;52986;44.028;20.466;2023-07-30T00:23:18;13.13;;;7.85;;
66179;SDS011;52986;44.028;20.466;2023-07-30T00:25:43;12.43;;;7.93;;
66179;SDS011;52986;44.028;20.466;2023-07-30T00:28:08;13.53;;;8.43;;
66179;SDS011;52986;44.028;20.466;2023-07-30T00:30:34;12.75;;;8.20;;
66179;SDS011;52986;44.028;20.466;2023-07-30T00:32:59;13.60;;;8.77;;
66179;SDS011;52986;44.028;20.466;2023-07-30T00:35:25;13.88;;;9.20;;
66179;SDS011;52986;44.028;20.466;2023-07-30T00:37:50;12.73;;;8.93;;
66179;SDS011;52986;44.028;20.466;2023-07-30T00:40:16;13.50;;;8.57;;
66179;SDS011;52986;44.028;20.466;2023-07-30T00:42:42;15.25;;;8.75;;
66179;SDS011;52986;44.028;20.466;2023-07-30T00:45:08;13.38;;;8.60;;
66179;SDS011;52986;44.028;20.466;2023-07-30T00:47:34;13.32;;;8.98;;
66179;SDS011;52986;44.028;20.466;2023-07-30T00:50:00;13.95;;;8.35;;
66179;SDS011;52986;44.028;20.466;2023-07-30T00:52:26;13.10;;;8.57;;
66179;SDS011;52986;44.028;20.466;2023-07-30T00:54:52;13.60;;;8.48;;
66179;SDS011;52986;44.028;20.466;2023-07-30T00:57:20;14.23;;;8.20;;
66179;SDS011;52986;44.028;20.466;2023-07-30T00:59:46;15.23;;;8.40;;
66179;SDS011;52986;44.028;20.466;2023-07-30T01:02:12;14.15;;;8.20;;
66179;SDS011;52986;44.028;20.466;2023-07-30T01:04:38;11.35;;;7.60;;
66179;SDS011;52986;44.028;20.466;2023-07-30T01:07:04;11.90;;;7.90;;
66179;SDS011;52986;44.028;20.466;2023-07-30T01:09:31;12.65;;;7.93;;
66179;SDS011;52986;44.028;20.466;2023-07-30T01:11:57;13.10;;;8.13;;
66179;SDS011;52986;44.028;20.466;2023-07-30T01:14:23;14.73;;;7.93;;
66179;SDS011;52986;44.028;20.466;2023-07-30T01:16:51;12.95;;;7.88;;
66179;SDS011;52986;44.028;20.466;2023-07-30T01:19:16;12.88;;;7.95;;
66179;SDS011;52986;44.028;20.466;2023-07-30T01:21:42;12.38;;;7.95;;
66179;SDS011;52986;44.028;20.466;2023-07-30T01:24:07;14.88;;;8.57;;
66179;SDS011;52986;44.028;20.466;2023-07-30T01:27:07;14.25;;;8.75;;
66179;SDS011;52986;44.028;20.466;2023-07-30T01:32:02;12.63;;;7.82;;
66179;SDS011;52986;44.028;20.466;2023-07-30T01:34:32;13.82;;;8.35;;
66179;SDS011;52986;44.028;20.466;2023-07-30T01:37:00;14.63;;;8.23;;
66179;SDS011;52986;44.028;20.466;2023-07-30T01:39:26;12.10;;;8.20;;
66179;SDS011;52986;44.028;20.466;2023-07-30T01:41:55;12.68;;;7.95;;
66179;SDS011;52986;44.028;20.466;2023-07-30T01:44:21;13.32;;;8.60;;
66179;SDS011;52986;44.028;20.466;2023-07-30T01:46:46;12.52;;;8.55;;
66179;SDS011;52986;44.028;20.466;2023-07-30T01:49:12;13.95;;;8.00;;
66179;SDS011;52986;44.028;20.466;2023-07-30T01:51:37;12.52;;;8.20;;
66179;SDS011;52986;44.028;20.466;2023-07-30T01:54:02;13.45;;;8.18;;
66179;SDS011;52986;44.028;20.466;2023-07-30T01:56:28;12.45;;;7.90;;
66179;SDS011;52986;44.028;20.466;2023-07-30T01:58:53;14.07;;;8.18;;
66179;SDS011;52986;44.028;20.466;2023-07-30T02:01:19;12.05;;;8.35;;
66179;SDS011;52986;44.028;20.466;2023-07-30T02:03:45;13.77;;;8.40;;
66179;SDS011;52986;44.028;20.466;2023-07-30T02:06:10;12.90;;;8.38;;
66179;SDS011;52986;44.028;20.466;2023-07-30T02:08:36;12.95;;;8.30;;
66179;SDS011;52986;44.028;20.466;2023-07-30T02:11:02;13.15;;;8.02;;
66179;SDS011;52986;44.028;20.466;2023-07-30T02:13:27;13.02;;;7.88;;
66179;SDS011;52986;44.028;20.466;2023-07-30T02:15:52;12.98;;;8.65;;
66179;SDS011;52986;44.028;20.466;2023-07-30T02:18:18;13.07;;;8.82;;
66179;SDS011;52986;44.028;20.466;2023-07-30T02:20:43;15.10;;;8.50;;
66179;SDS011;52986;44.028;20.466;2023-07-30T02:23:09;13.60;;;9.00;;
66179;SDS011;52986;44.028;20.466;2023-07-30T02:25:34;13.02;;;8.88;;
66179;SDS011;52986;44.028;20.466;2023-07-30T02:28:00;13.13;;;8.68;;
66179;SDS011;52986;44.028;20.466;2023-07-30T02:30:27;13.98;;;8.52;;
66179;SDS011;52986;44.028;20.466;2023-07-30T02:32:53;12.52;;;8.52;;
66179;SDS011;52986;44.028;20.466;2023-07-30T02:35:18;12.88;;;8.93;;
66179;SDS011;52986;44.028;20.466;2023-07-30T02:37:43;15.13;;;8.65;;
66179;SDS011;52986;44.028;20.466;2023-07-30T02:40:09;12.80;;;8.70;;
66179;SDS011;52986;44.028;20.466;2023-07-30T02:42:35;14.38;;;8.80;;
66179;SDS011;52986;44.028;20.466;2023-07-30T02:45:00;13.02;;;8.73;;
66179;SDS011;52986;44.028;20.466;2023-07-30T02:47:25;13.25;;;8.23;;
66179;SDS011;52986;44.028;20.466;2023-07-30T02:49:51;13.52;;;7.85;;
66179;SDS011;52986;44.028;20.466;2023-07-30T02:52:16;12.20;;;7.80;;
66179;SDS011;52986;44.028;20.466;2023-07-30T02:54:41;13.38;;;8.75;;
66179;SDS011;52986;44.028;20.466;2023-07-30T02:57:07;13.27;;;9.00;;
66179;SDS011;52986;44.028;20.466;2023-07-30T02:59:32;12.70;;;8.60;;
66179;SDS011;52986;44.028;20.466;2023-07-30T03:02:01;15.30;;;9.43;;
66179;SDS011;52986;44.028;20.466;2023-07-30T03:04:27;17.30;;;9.57;;
66179;SDS011;52986;44.028;20.466;2023-07-30T03:06:52;14.93;;;9.48;;
66179;SDS011;52986;44.028;20.466;2023-07-30T03:09:18;14.55;;;9.65;;
66179;SDS011;52986;44.028;20.466;2023-07-30T03:11:43;14.68;;;9.15;;
66179;SDS011;52986;44.028;20.466;2023-07-30T03:14:08;14.43;;;9.40;;
66179;SDS011;52986;44.028;20.466;2023-07-30T03:16:34;14.77;;;10.00;;
66179;SDS011;52986;44.028;20.466;2023-07-30T03:18:59;15.45;;;10.00;;
66179;SDS011;52986;44.028;20.466;2023-07-30T03:21:24;14.35;;;9.52;;
66179;SDS011;52986;44.028;20.466;2023-07-30T03:23:50;15.25;;;9.68;;
66179;SDS011;52986;44.028;20.466;2023-07-30T03:26:15;14.23;;;9.00;;
66179;SDS011;52986;44.028;20.466;2023-07-30T03:28:41;13.93;;;9.25;;
66179;SDS011;52986;44.028;20.466;2023-07-30T03:31:06;12.65;;;8.73;;
66179;SDS011;52986;44.028;20.466;2023-07-30T03:33:31;15.52;;;9.30;;
66179;SDS011;52986;44.028;20.466;2023-07-30T03:35:57;13.65;;;9.27;;
66179;SDS011;52986;44.028;20.466;2023-07-30T03:38:22;13.35;;;8.60;;
66179;SDS011;52986;44.028;20.466;2023-07-30T03:40:48;12.32;;;8.65;;
66179;SDS011;52986;44.028;20.466;2023-07-30T03:43:13;13.38;;;8.77;;
66179;SDS011;52986;44.028;20.466;2023-07-30T03:45:40;14.45;;;8.13;;
66179;SDS011;52986;44.028;20.466;2023-07-30T03:48:05;13.40;;;8.55;;
66179;SDS011;52986;44.028;20.466;2023-07-30T03:50:31;12.60;;;8.48;;
66179;SDS011;52986;44.028;20.466;2023-07-30T03:52:56;13.07;;;8.43;;
66179;SDS011;52986;44.028;20.466;2023-07-30T03:55:23;12.20;;;8.13;;
66179;SDS011;52986;44.028;20.466;2023-07-30T03:57:48;15.57;;;8.77;;
66179;SDS011;52986;44.028;20.466;2023-07-30T04:00:14;14.13;;;9.40;;
66179;SDS011;52986;44.028;20.466;2023-07-30T04:02:39;14.70;;;9.88;;
66179;SDS011;52986;44.028;20.466;2023-07-30T04:05:05;14.82;;;9.55;;
66179;SDS011;52986;44.028;20.466;2023-07-30T04:07:30;15.77;;;9.48;;
66179;SDS011;52986;44.028;20.466;2023-07-30T04:09:56;14.77;;;9.15;;
66179;SDS011;52986;44.028;20.466;2023-07-30T04:12:22;14.60;;;9.93;;
66179;SDS011;52986;44.028;20.466;2023-07-30T04:14:47;15.85;;;10.43;;
66179;SDS011;52986;44.028;20.466;2023-07-30T04:17:13;13.88;;;9.63;;
66179;SDS011;52986;44.028;20.466;2023-07-30T04:19:38;14.57;;;9.65;;
66179;SDS011;52986;44.028;20.466;2023-07-30T04:22:03;14.57;;;9.17;;
66179;SDS011;52986;44.028;20.466;2023-07-30T04:24:29;16.77;;;9.82;;
66179;SDS011;52986;44.028;20.466;2023-07-30T04:26:54;15.60;;;9.63;;
66179;SDS011;52986;44.028;20.466;2023-07-30T04:29:19;15.20;;;9.35;;
66179;SDS011;52986;44.028;20.466;2023-07-30T04:31:45;13.52;;;9.15;;
66179;SDS011;52986;44.028;20.466;2023-07-30T04:34:10;14.53;;;9.27;;
66179;SDS011;52986;44.028;20.466;2023-07-30T04:36:36;14.40;;;8.70;;
66179;SDS011;52986;44.028;20.466;2023-07-30T04:39:01;13.82;;;8.40;;
66179;SDS011;52986;44.028;20.466;2023-07-30T04:41:26;15.45;;;8.90;;
66179;SDS011;52986;44.028;20.466;2023-07-30T04:43:52;14.68;;;8.90;;
66179;SDS011;52986;44.028;20.466;2023-07-30T04:46:17;14.48;;;8.73;;
66179;SDS011;52986;44.028;20.466;2023-07-30T04:48:42;14.53;;;8.33;;
66179;SDS011;52986;44.028;20.466;2023-07-30T04:51:08;12.50;;;8.40;;
66179;SDS011;52986;44.028;20.466;2023-07-30T04:53:33;14.10;;;8.55;;
66179;SDS011;52986;44.028;20.466;2023-07-30T04:55:58;12.33;;;8.10;;
66179;SDS011;52986;44.028;20.466;2023-07-30T04:58:24;14.35;;;9.07;;
66179;SDS011;52986;44.028;20.466;2023-07-30T05:00:49;13.57;;;8.13;;
66179;SDS011;52986;44.028;20.466;2023-07-30T05:03:15;12.48;;;8.13;;
66179;SDS011;52986;44.028;20.466;2023-07-30T05:05:40;12.30;;;8.10;;
66179;SDS011;52986;44.028;20.466;2023-07-30T05:08:06;12.48;;;8.38;;
66179;SDS011;52986;44.028;20.466;2023-07-30T05:10:32;12.23;;;8.23;;
66179;SDS011;52986;44.028;20.466;2023-07-30T05:12:57;12.70;;;8.18;;
66179;SDS011;52986;44.028;20.466;2023-07-30T05:15:22;11.68;;;7.93;;
66179;SDS011;52986;44.028;20.466;2023-07-30T05:17:48;13.95;;;8.77;;
66179;SDS011;52986;44.028;20.466;2023-07-30T05:20:13;11.68;;;8.25;;
66179;SDS011;52986;44.028;20.466;2023-07-30T05:22:39;14.07;;;8.38;;
66179;SDS011;52986;44.028;20.466;2023-07-30T05:25:04;12.10;;;7.88;;
66179;SDS011;52986;44.028;20.466;2023-07-30T05:27:30;13.43;;;8.55;;
66179;SDS011;52986;44.028;20.466;2023-07-30T05:29:56;12.65;;;8.40;;
66179;SDS011;52986;44.028;20.466;2023-07-30T05:32:22;12.88;;;8.60;;
66179;SDS011;52986;44.028;20.466;2023-07-30T05:34:47;14.00;;;8.55;;
66179;SDS011;52986;44.028;20.466;2023-07-30T05:37:13;13.30;;;8.05;;
66179;SDS011;52986;44.028;20.466;2023-07-30T05:39:38;12.82;;;7.78;;
66179;SDS011;52986;44.028;20.466;2023-07-30T05:42:03;12.85;;;8.05;;
66179;SDS011;52986;44.028;20.466;2023-07-30T05:44:29;12.27;;;8.30;;
66179;SDS011;52986;44.028;20.466;2023-07-30T05:46:54;13.00;;;8.02;;
66179;SDS011;52986;44.028;20.466;2023-07-30T05:49:20;14.07;;;8.18;;
66179;SDS011;52986;44.028;20.466;2023-07-30T05:51:45;14.52;;;8.15;;
66179;SDS011;52986;44.028;20.466;2023-07-30T05:54:11;11.25;;;7.53;;
66179;SDS011;52986;44.028;20.466;2023-07-30T05:56:37;12.13;;;8.30;;
66179;SDS011;52986;44.028;20.466;2023-07-30T05:59:02;12.43;;;7.47;;
66179;SDS011;52986;44.028;20.466;2023-07-30T06:01:27;12.48;;;7.35;;
66179;SDS011;52986;44.028;20.466;2023-07-30T06:03:53;12.85;;;8.20;;
66179;SDS011;52986;44.028;20.466;2023-07-30T06:06:18;12.50;;;8.32;;
66179;SDS011;52986;44.028;20.466;2023-07-30T06:08:51;12.30;;;7.72;;
66179;SDS011;52986;44.028;20.466;2023-07-30T06:11:17;12.45;;;8.10;;
66179;SDS011;52986;44.028;20.466;2023-07-30T06:13:42;13.02;;;8.13;;
66179;SDS011;52986;44.028;20.466;2023-07-30T06:16:08;12.80;;;8.40;;
66179;SDS011;52986;44.028;20.466;2023-07-30T06:18:34;11.95;;;8.48;;
66179;SDS011;52986;44.028;20.466;2023-07-30T06:21:00;16.10;;;8.77;;
66179;SDS011;52986;44.028;20.466;2023-07-30T06:23:25;13.63;;;8.30;;
66179;SDS011;52986;44.028;20.466;2023-07-30T06:25:50;13.95;;;8.30;;
66179;SDS011;52986;44.028;20.466;2023-07-30T06:28:16;14.95;;;8.18;;
66179;SDS011;52986;44.028;20.466;2023-07-30T06:30:41;14.30;;;8.70;;
66179;SDS011;52986;44.028;20.466;2023-07-30T06:33:07;12.10;;;8.23;;
66179;SDS011;52986;44.028;20.466;2023-07-30T06:35:32;13.52;;;8.38;;
66179;SDS011;52986;44.028;20.466;2023-07-30T06:37:57;15.32;;;8.35;;
66179;SDS011;52986;44.028;20.466;2023-07-30T06:40:23;13.07;;;8.50;;
66179;SDS011;52986;44.028;20.466;2023-07-30T06:42:48;14.65;;;8.57;;
66179;SDS011;52986;44.028;20.466;2023-07-30T06:45:13;12.30;;;7.97;;
66179;SDS011;52986;44.028;20.466;2023-07-30T06:47:39;14.25;;;8.27;;
66179;SDS011;52986;44.028;20.466;2023-07-30T06:50:05;13.25;;;7.95;;
66179;SDS011;52986;44.028;20.466;2023-07-30T06:52:33;13.23;;;8.30;;
66179;SDS011;52986;44.028;20.466;2023-07-30T06:54:59;15.05;;;8.25;;
66179;SDS011;52986;44.028;20.466;2023-07-30T06:57:24;12.88;;;8.20;;
66179;SDS011;52986;44.028;20.466;2023-07-30T06:59:50;11.43;;;7.90;;
66179;SDS011;52986;44.028;20.466;2023-07-30T07:02:15;12.15;;;8.00;;
66179;SDS011;52986;44.028;20.466;2023-07-30T07:04:40;12.52;;;8.18;;
66179;SDS011;52986;44.028;20.466;2023-07-30T07:07:06;11.63;;;7.50;;
66179;SDS011;52986;44.028;20.466;2023-07-30T07:09:31;13.27;;;8.23;;
66179;SDS011;52986;44.028;20.466;2023-07-30T07:11:57;12.83;;;8.07;;
66179;SDS011;52986;44.028;20.466;2023-07-30T07:14:23;12.73;;;7.53;;
66179;SDS011;52986;44.028;20.466;2023-07-30T07:16:48;11.87;;;7.60;;
66179;SDS011;52986;44.028;20.466;2023-07-30T07:19:14;12.63;;;8.05;;
66179;SDS011;52986;44.028;20.466;2023-07-30T07:21:39;12.80;;;8.07;;
66179;SDS011;52986;44.028;20.466;2023-07-30T07:24:05;12.15;;;7.70;;
66179;SDS011;52986;44.028;20.466;2023-07-30T07:26:30;11.45;;;7.25;;
66179;SDS011;52986;44.028;20.466;2023-07-30T07:28:56;10.90;;;7.32;;
66179;SDS011;52986;44.028;20.466;2023-07-30T07:31:21;13.50;;;7.20;;
66179;SDS011;52986;44.028;20.466;2023-07-30T07:33:46;11.27;;;7.10;;
66179;SDS011;52986;44.028;20.466;2023-07-30T07:36:12;14.73;;;7.20;;
66179;SDS011;52986;44.028;20.466;2023-07-30T07:38:39;12.82;;;7.22;;
66179;SDS011;52986;44.028;20.466;2023-07-30T07:41:05;10.95;;;6.80;;
66179;SDS011;52986;44.028;20.466;2023-07-30T07:43:30;10.50;;;6.15;;
66179;SDS011;52986;44.028;20.466;2023-07-30T07:45:55;9.35;;;6.38;;
66179;SDS011;52986;44.028;20.466;2023-07-30T07:48:21;11.10;;;6.13;;
66179;SDS011;52986;44.028;20.466;2023-07-30T07:50:46;10.27;;;6.78;;
66179;SDS011;52986;44.028;20.466;2023-07-30T07:53:12;10.23;;;6.72;;
66179;SDS011;52986;44.028;20.466;2023-07-30T07:55:37;10.90;;;6.25;;
66179;SDS011;52986;44.028;20.466;2023-07-30T07:58:02;10.45;;;6.35;;
66179;SDS011;52986;44.028;20.466;2023-07-30T08:00:28;9.73;;;6.32;;
66179;SDS011;52986;44.028;20.466;2023-07-30T08:02:53;11.68;;;5.95;;
66179;SDS011;52986;44.028;20.466;2023-07-30T08:05:18;10.55;;;5.75;;
66179;SDS011;52986;44.028;20.466;2023-07-30T08:07:47;9.80;;;6.80;;
66179;SDS011;52986;44.028;20.466;2023-07-30T08:10:13;10.75;;;5.68;;
66179;SDS011;52986;44.028;20.466;2023-07-30T08:12:38;9.82;;;5.70;;
66179;SDS011;52986;44.028;20.466;2023-07-30T08:15:04;9.70;;;5.65;;
66179;SDS011;52986;44.028;20.466;2023-07-30T08:17:30;8.93;;;5.90;;
66179;SDS011;52986;44.028;20.466;2023-07-30T08:19:55;9.65;;;6.15;;
66179;SDS011;52986;44.028;20.466;2023-07-30T08:22:20;9.07;;;5.57;;
66179;SDS011;52986;44.028;20.466;2023-07-30T08:24:46;9.23;;;5.70;;
66179;SDS011;52986;44.028;20.466;2023-07-30T08:27:11;9.70;;;5.57;;
66179;SDS011;52986;44.028;20.466;2023-07-30T08:29:36;10.18;;;5.68;;
66179;SDS011;52986;44.028;20.466;2023-07-30T08:32:02;9.25;;;6.00;;
66179;SDS011;52986;44.028;20.466;2023-07-30T08:34:28;12.93;;;7.00;;
66179;SDS011;52986;44.028;20.466;2023-07-30T08:36:53;11.27;;;7.25;;
66179;SDS011;52986;44.028;20.466;2023-07-30T08:39:18;11.40;;;5.95;;
66179;SDS011;52986;44.028;20.466;2023-07-30T08:41:45;11.57;;;6.63;;
66179;SDS011;52986;44.028;20.466;2023-07-30T08:44:12;11.30;;;6.35;;
66179;SDS011;52986;44.028;20.466;2023-07-30T08:46:38;9.73;;;6.10;;
66179;SDS011;52986;44.028;20.466;2023-07-30T08:49:03;10.48;;;5.95;;
66179;SDS011;52986;44.028;20.466;2023-07-30T08:51:29;9.48;;;5.65;;
66179;SDS011;52986;44.028;20.466;2023-07-30T08:53:57;9.00;;;5.38;;
66179;SDS011;52986;44.028;20.466;2023-07-30T08:56:24;11.02;;;5.70;;
66179;SDS011;52986;44.028;20.466;2023-07-30T08:58:50;9.68;;;5.53;;
66179;SDS011;52986;44.028;20.466;2023-07-30T09:01:18;10.68;;;5.70;;
66179;SDS011;52986;44.028;20.466;2023-07-30T09:03:44;9.18;;;5.72;;
66179;SDS011;52986;44.028;20.466;2023-07-30T09:06:10;9.90;;;5.68;;
66179;SDS011;52986;44.028;20.466;2023-07-30T09:08:35;8.77;;;5.78;;
66179;SDS011;52986;44.028;20.466;2023-07-30T09:11:10;9.02;;;5.82;;
66179;SDS011;52986;44.028;20.466;2023-07-30T09:13:39;10.15;;;5.80;;
66179;SDS011;52986;44.028;20.466;2023-07-30T09:16:12;9.90;;;5.82;;
66179;SDS011;52986;44.028;20.466;2023-07-30T09:18:39;8.57;;;5.93;;
66179;SDS011;52986;44.028;20.466;2023-07-30T09:21:14;9.88;;;5.50;;
66179;SDS011;52986;44.028;20.466;2023-07-30T09:23:44;10.38;;;6.30;;
66179;SDS011;52986;44.028;20.466;2023-07-30T09:26:10;9.50;;;5.35;;
66179;SDS011;52986;44.028;20.466;2023-07-30T09:28:36;8.68;;;5.97;;
66179;SDS011;52986;44.028;20.466;2023-07-30T09:31:02;8.95;;;5.90;;
66179;SDS011;52986;44.028;20.466;2023-07-30T09:33:29;10.02;;;5.28;;
66179;SDS011;52986;44.028;20.466;2023-07-30T09:35:56;8.35;;;5.35;;
66179;SDS011;52986;44.028;20.466;2023-07-30T09:38:21;10.68;;;5.38;;
66179;SDS011;52986;44.028;20.466;2023-07-30T09:40:47;9.20;;;5.85;;
66179;SDS011;52986;44.028;20.466;2023-07-30T09:43:15;9.98;;;5.70;;
66179;SDS011;52986;44.028;20.466;2023-07-30T09:45:43;10.07;;;5.57;;
66179;SDS011;52986;44.028;20.466;2023-07-30T09:48:11;10.35;;;5.63;;
66179;SDS011;52986;44.028;20.466;2023-07-30T09:50:37;9.35;;;5.32;;
66179;SDS011;52986;44.028;20.466;2023-07-30T09:53:03;8.98;;;5.75;;
66179;SDS011;52986;44.028;20.466;2023-07-30T09:55:29;9.70;;;5.85;;
66179;SDS011;52986;44.028;20.466;2023-07-30T09:57:54;10.35;;;6.05;;
66179;SDS011;52986;44.028;20.466;2023-07-30T10:00:20;8.77;;;5.68;;
66179;SDS011;52986;44.028;20.466;2023-07-30T10:02:46;10.52;;;5.75;;
66179;SDS011;52986;44.028;20.466;2023-07-30T10:05:17;10.82;;;5.90;;
66179;SDS011;52986;44.028;20.466;2023-07-30T10:07:53;9.73;;;5.30;;
66179;SDS011;52986;44.028;20.466;2023-07-30T10:10:20;8.80;;;5.35;;
66179;SDS011;52986;44.028;20.466;2023-07-30T10:12:49;8.80;;;5.57;;
66179;SDS011;52986;44.028;20.466;2023-07-30T10:15:18;9.27;;;5.18;;
66179;SDS011;52986;44.028;20.466;2023-07-30T10:17:45;10.07;;;5.88;;
66179;SDS011;52986;44.028;20.466;2023-07-30T10:20:20;9.25;;;5.10;;
66179;SDS011;52986;44.028;20.466;2023-07-30T10:22:47;10.23;;;5.50;;
66179;SDS011;52986;44.028;20.466;2023-07-30T10:25:17;8.82;;;5.00;;
66179;SDS011;52986;44.028;20.466;2023-07-30T10:27:46;8.30;;;5.30;;
66179;SDS011;52986;44.028;20.466;2023-07-30T10:30:15;9.57;;;5.43;;
66179;SDS011;52986;44.028;20.466;2023-07-30T10:32:57;9.60;;;5.38;;
66179;SDS011;52986;44.028;20.466;2023-07-30T10:38:18;10.45;;;5.25;;
66179;SDS011;52986;44.028;20.466;2023-07-30T10:41:05;8.65;;;4.80;;
66179;SDS011;52986;44.028;20.466;2023-07-30T10:43:49;9.25;;;4.50;;
66179;SDS011;52986;44.028;20.466;2023-07-30T10:46:16;10.50;;;4.80;;
66179;SDS011;52986;44.028;20.466;2023-07-30T10:48:43;9.13;;;4.60;;
66179;SDS011;52986;44.028;20.466;2023-07-30T10:51:10;9.32;;;5.28;;
66179;SDS011;52986;44.028;20.466;2023-07-30T10:53:44;9.25;;;4.97;;
66179;SDS011;52986;44.028;20.466;2023-07-30T10:56:10;8.60;;;4.90;;
66179;SDS011;52986;44.028;20.466;2023-07-30T10:58:36;10.25;;;5.22;;
66179;SDS011;52986;44.028;20.466;2023-07-30T11:01:02;9.32;;;4.88;;
66179;SDS011;52986;44.028;20.466;2023-07-30T11:03:29;8.98;;;4.70;;
66179;SDS011;52986;44.028;20.466;2023-07-30T11:05:55;9.68;;;4.78;;
66179;SDS011;52986;44.028;20.466;2023-07-30T11:08:36;10.13;;;4.72;;
66179;SDS011;52986;44.028;20.466;2023-07-30T11:11:04;10.52;;;4.93;;
66179;SDS011;52986;44.028;20.466;2023-07-30T11:13:34;8.93;;;4.95;;
66179;SDS011;52986;44.028;20.466;2023-07-30T11:16:04;9.98;;;5.00;;
66179;SDS011;52986;44.028;20.466;2023-07-30T11:18:33;7.82;;;4.50;;
66179;SDS011;52986;44.028;20.466;2023-07-30T11:21:03;10.18;;;4.95;;
66179;SDS011;52986;44.028;20.466;2023-07-30T11:23:30;11.07;;;4.75;;
66179;SDS011;52986;44.028;20.466;2023-07-30T11:25:55;8.97;;;4.80;;
66179;SDS011;52986;44.028;20.466;2023-07-30T11:28:53;7.88;;;4.55;;
66179;SDS011;52986;44.028;20.466;2023-07-30T11:31:16;8.98;;;4.60;;
66179;SDS011;52986;44.028;20.466;2023-07-30T11:33:47;9.85;;;4.60;;
66179;SDS011;52986;44.028;20.466;2023-07-30T11:36:20;9.88;;;4.65;;
66179;SDS011;52986;44.028;20.466;2023-07-30T11:38:47;8.38;;;4.53;;
66179;SDS011;52986;44.028;20.466;2023-07-30T11:41:13;9.02;;;4.72;;
66179;SDS011;52986;44.028;20.466;2023-07-30T11:43:42;8.88;;;4.65;;
66179;SDS011;52986;44.028;20.466;2023-07-30T11:46:26;8.63;;;4.55;;
66179;SDS011;52986;44.028;20.466;2023-07-30T11:48:53;11.43;;;4.70;;
66179;SDS011;52986;44.028;20.466;2023-07-30T11:51:35;9.35;;;4.80;;
66179;SDS011;52986;44.028;20.466;2023-07-30T11:54:00;9.57;;;5.60;;
66179;SDS011;52986;44.028;20.466;2023-07-30T11:56:31;10.05;;;4.30;;
66179;SDS011;52986;44.028;20.466;2023-07-30T11:59:02;10.20;;;5.00;;
66179;SDS011;52986;44.028;20.466;2023-07-30T12:01:32;8.90;;;4.40;;
66179;SDS011;52986;44.028;20.466;2023-07-30T12:04:05;10.10;;;4.50;;
66179;SDS011;52986;44.028;20.466;2023-07-30T12:09:15;9.77;;;4.80;;
66179;SDS011;52986;44.028;20.466;2023-07-30T12:14:15;8.43;;;4.40;;
66179;SDS011;52986;44.028;20.466;2023-07-30T12:16:41;8.75;;;4.53;;
66179;SDS011;52986;44.028;20.466;2023-07-30T12:19:06;9.98;;;4.68;;
66179;SDS011;52986;44.028;20.466;2023-07-30T12:21:32;8.82;;;4.32;;
66179;SDS011;52986;44.028;20.466;2023-07-30T12:23:57;8.57;;;4.20;;
66179;SDS011;52986;44.028;20.466;2023-07-30T12:26:23;9.10;;;4.90;;
66179;SDS011;52986;44.028;20.466;2023-07-30T12:28:48;9.68;;;5.03;;
66179;SDS011;52986;44.028;20.466;2023-07-30T12:31:13;8.25;;;4.40;;
66179;SDS011;52986;44.028;20.466;2023-07-30T12:33:39;9.27;;;4.65;;
66179;SDS011;52986;44.028;20.466;2023-07-30T12:36:04;9.90;;;4.93;;
66179;SDS011;52986;44.028;20.466;2023-07-30T12:38:30;8.63;;;4.38;;
66179;SDS011;52986;44.028;20.466;2023-07-30T12:40:55;8.88;;;4.57;;
66179;SDS011;52986;44.028;20.466;2023-07-30T12:43:21;8.90;;;4.55;;
66179;SDS011;52986;44.028;20.466;2023-07-30T12:45:46;8.57;;;4.90;;
66179;SDS011;52986;44.028;20.466;2023-07-30T12:48:12;9.38;;;4.55;;
66179;SDS011;52986;44.028;20.466;2023-07-30T12:50:38;8.25;;;4.60;;
66179;SDS011;52986;44.028;20.466;2023-07-30T12:53:03;9.45;;;4.60;;
66179;SDS011;52986;44.028;20.466;2023-07-30T12:55:29;8.98;;;4.40;;
66179;SDS011;52986;44.028;20.466;2023-07-30T12:57:54;10.43;;;4.80;;
66179;SDS011;52986;44.028;20.466;2023-07-30T13:00:20;9.45;;;4.78;;
66179;SDS011;52986;44.028;20.466;2023-07-30T13:02:45;11.07;;;4.75;;
66179;SDS011;52986;44.028;20.466;2023-07-30T13:05:11;8.52;;;4.60;;
66179;SDS011;52986;44.028;20.466;2023-07-30T13:07:38;10.27;;;4.78;;
66179;SDS011;52986;44.028;20.466;2023-07-30T13:10:07;8.65;;;4.65;;
66179;SDS011;52986;44.028;20.466;2023-07-30T13:12:33;9.40;;;4.60;;
66179;SDS011;52986;44.028;20.466;2023-07-30T13:14:59;9.57;;;4.78;;
66179;SDS011;52986;44.028;20.466;2023-07-30T13:17:25;10.93;;;6.07;;
66179;SDS011;52986;44.028;20.466;2023-07-30T13:19:50;9.57;;;4.65;;
66179;SDS011;52986;44.028;20.466;2023-07-30T13:22:16;9.27;;;4.85;;
66179;SDS011;52986;44.028;20.466;2023-07-30T13:24:41;8.35;;;4.82;;
66179;SDS011;52986;44.028;20.466;2023-07-30T13:27:06;8.57;;;4.40;;
66179;SDS011;52986;44.028;20.466;2023-07-30T13:29:32;9.57;;;5.13;;
66179;SDS011;52986;44.028;20.466;2023-07-30T13:31:57;8.60;;;4.90;;
66179;SDS011;52986;44.028;20.466;2023-07-30T13:34:22;11.90;;;7.30;;
66179;SDS011;52986;44.028;20.466;2023-07-30T13:36:48;12.65;;;7.35;;
66179;SDS011;52986;44.028;20.466;2023-07-30T13:39:13;13.55;;;8.52;;
66179;SDS011;52986;44.028;20.466;2023-07-30T13:41:39;12.10;;;6.93;;
66179;SDS011;52986;44.028;20.466;2023-07-30T13:44:04;10.60;;;5.78;;
66179;SDS011;52986;44.028;20.466;2023-07-30T13:46:29;12.20;;;5.65;;
66179;SDS011;52986;44.028;20.466;2023-07-30T13:48:55;9.40;;;5.00;;
66179;SDS011;52986;44.028;20.466;2023-07-30T13:51:20;11.17;;;5.10;;
66179;SDS011;52986;44.028;20.466;2023-07-30T13:53:46;9.07;;;5.10;;
66179;SDS011;52986;44.028;20.466;2023-07-30T13:56:11;10.77;;;6.25;;
66179;SDS011;52986;44.028;20.466;2023-07-30T13:58:36;13.13;;;5.93;;
66179;SDS011;52986;44.028;20.466;2023-07-30T14:01:04;11.50;;;5.50;;
66179;SDS011;52986;44.028;20.466;2023-07-30T14:03:30;12.00;;;6.82;;
66179;SDS011;52986;44.028;20.466;2023-07-30T14:05:55;11.02;;;6.85;;
66179;SDS011;52986;44.028;20.466;2023-07-30T14:08:20;10.95;;;7.00;;
66179;SDS011;52986;44.028;20.466;2023-07-30T14:10:46;13.48;;;7.75;;
66179;SDS011;52986;44.028;20.466;2023-07-30T14:13:11;12.70;;;7.90;;
66179;SDS011;52986;44.028;20.466;2023-07-30T14:15:36;14.85;;;8.77;;
66179;SDS011;52986;44.028;20.466;2023-07-30T14:18:02;17.52;;;10.20;;
66179;SDS011;52986;44.028;20.466;2023-07-30T14:20:27;15.63;;;10.13;;
66179;SDS011;52986;44.028;20.466;2023-07-30T14:22:53;17.40;;;7.78;;
66179;SDS011;52986;44.028;20.466;2023-07-30T14:25:19;16.42;;;5.40;;
66179;SDS011;52986;44.028;20.466;2023-07-30T14:27:44;17.13;;;3.55;;
66179;SDS011;52986;44.028;20.466;2023-07-30T14:30:10;19.33;;;4.32;;
66179;SDS011;52986;44.028;20.466;2023-07-30T14:32:36;13.48;;;3.90;;